sensor_id;sensor_type;location;lat;lon;timestamp;pressure;altitude;pressure_sealevel;temperature;humidity
50977;BME280;36992;48.200;12.418;2023-04-07T00:00:30;96769.81;;;7.97;40.71
50977;BME280;36992;48.200;12.418;2023-04-07T00:02:57;96783.53;;;7.95;40.79
50977;BME280;36992;48.200;12.418;2023-04-07T00:05:23;96774.94;;;7.93;40.82
50977;BME280;36992;48.200;12.418;2023-04-07T00:07:51;96776.03;;;7.92;40.71
50977;BME280;36992;48.200;12.418;2023-04-07T00:10:18;96773.91;;;7.89;40.88
50977;BME280;36992;48.200;12.418;2023-04-07T00:12:45;96776.03;;;7.87;41.08
50977;BME280;36992;48.200;12.418;2023-04-07T00:15:11;96777.13;;;7.86;41.00
50977;BME280;36992;48.200;12.418;2023-04-07T00:17:38;96777.66;;;7.83;41.04
50977;BME280;36992;48.200;12.418;2023-04-07T00:20:05;96769.06;;;7.81;41.14
50977;BME280;36992;48.200;12.418;2023-04-07T00:22:32;96762.38;;;7.78;41.07
50977;BME280;36992;48.200;12.418;2023-04-07T00:25:00;96771.25;;;7.79;40.79
50977;BME280;36992;48.200;12.418;2023-04-07T00:27:26;96770.97;;;7.75;41.15
50977;BME280;36992;48.200;12.418;2023-04-07T00:29:53;96762.13;;;7.75;41.06
50977;BME280;36992;48.200;12.418;2023-04-07T00:32:20;96768.81;;;7.72;41.30
50977;BME280;36992;48.200;12.418;2023-04-07T00:34:47;96768.31;;;7.70;41.22
50977;BME280;36992;48.200;12.418;2023-04-07T00:37:14;96765.63;;;7.70;41.45
50977;BME280;36992;48.200;12.418;2023-04-07T00:39:41;96766.69;;;7.69;41.66
50977;BME280;36992;48.200;12.418;2023-04-07T00:42:08;96759.47;;;7.69;41.50
50977;BME280;36992;48.200;12.418;2023-04-07T00:44:35;96758.94;;;7.67;41.45
50977;BME280;36992;48.200;12.418;2023-04-07T00:47:02;96746.06;;;7.64;41.49
50977;BME280;36992;48.200;12.418;2023-04-07T00:49:29;96752.78;;;7.62;41.83
50977;BME280;36992;48.200;12.418;2023-04-07T00:51:56;96749.84;;;7.58;41.73
50977;BME280;36992;48.200;12.418;2023-04-07T00:54:23;96741.53;;;7.54;41.80
50977;BME280;36992;48.200;12.418;2023-04-07T00:56:51;96746.09;;;7.54;41.60
50977;BME280;36992;48.200;12.418;2023-04-07T00:59:19;96739.13;;;7.53;41.62
50977;BME280;36992;48.200;12.418;2023-04-07T01:01:52;96739.13;;;7.53;40.88
50977;BME280;36992;48.200;12.418;2023-04-07T01:04:25;96735.09;;;7.50;40.81
50977;BME280;36992;48.200;12.418;2023-04-07T01:06:58;96737.53;;;7.47;41.29
50977;BME280;36992;48.200;12.418;2023-04-07T01:09:31;96737.00;;;7.45;41.10
50977;BME280;36992;48.200;12.418;2023-04-07T01:12:04;96733.78;;;7.42;40.95
50977;BME280;36992;48.200;12.418;2023-04-07T01:14:39;96733.00;;;7.42;40.79
50977;BME280;36992;48.200;12.418;2023-04-07T01:17:08;96719.03;;;7.40;41.33
50977;BME280;36992;48.200;12.418;2023-04-07T01:19:37;96719.84;;;7.40;41.30
50977;BME280;36992;48.200;12.418;2023-04-07T01:22:08;96721.44;;;7.41;41.23
50977;BME280;36992;48.200;12.418;2023-04-07T01:24:45;96720.38;;;7.42;41.06
50977;BME280;36992;48.200;12.418;2023-04-07T01:27:20;96720.38;;;7.42;41.46
50977;BME280;36992;48.200;12.418;2023-04-07T01:29:51;96715.00;;;7.42;41.48
50977;BME280;36992;48.200;12.418;2023-04-07T01:32:19;96722.78;;;7.39;41.92
50977;BME280;36992;48.200;12.418;2023-04-07T01:34:48;96722.53;;;7.40;41.70
50977;BME280;36992;48.200;12.418;2023-04-07T01:37:16;96712.34;;;7.37;42.04
50977;BME280;36992;48.200;12.418;2023-04-07T01:39:43;96709.66;;;7.37;42.00
50977;BME280;36992;48.200;12.418;2023-04-07T01:42:10;96711.81;;;7.35;41.84
50977;BME280;36992;48.200;12.418;2023-04-07T01:44:38;96709.13;;;7.35;41.94
50977;BME280;36992;48.200;12.418;2023-04-07T01:47:06;96720.66;;;7.36;42.00
50977;BME280;36992;48.200;12.418;2023-04-07T01:49:34;96719.34;;;7.33;42.10
50977;BME280;36992;48.200;12.418;2023-04-07T01:52:02;96718.25;;;7.29;42.14
50977;BME280;36992;48.200;12.418;2023-04-07T01:54:30;96711.56;;;7.26;42.07
50977;BME280;36992;48.200;12.418;2023-04-07T01:56:57;96714.50;;;7.25;41.88
50977;BME280;36992;48.200;12.418;2023-04-07T01:59:24;96707.03;;;7.22;42.13
50977;BME280;36992;48.200;12.418;2023-04-07T02:01:50;96716.91;;;7.21;42.20
50977;BME280;36992;48.200;12.418;2023-04-07T02:04:23;96713.72;;;7.24;41.73
50977;BME280;36992;48.200;12.418;2023-04-07T02:06:53;96705.41;;;7.21;41.82
50977;BME280;36992;48.200;12.418;2023-04-07T02:09:23;96708.38;;;7.19;41.75
50977;BME280;36992;48.200;12.418;2023-04-07T02:11:52;96706.50;;;7.20;41.78
50977;BME280;36992;48.200;12.418;2023-04-07T02:14:21;96707.03;;;7.17;42.25
50977;BME280;36992;48.200;12.418;2023-04-07T02:16:49;96708.88;;;7.16;42.08
50977;BME280;36992;48.200;12.418;2023-04-07T02:19:17;96711.84;;;7.14;42.22
50977;BME280;36992;48.200;12.418;2023-04-07T02:21:45;96706.50;;;7.14;41.77
50977;BME280;36992;48.200;12.418;2023-04-07T02:24:13;96700.06;;;7.10;42.20
50977;BME280;36992;48.200;12.418;2023-04-07T02:26:44;96699.25;;;7.10;42.03
50977;BME280;36992;48.200;12.418;2023-04-07T02:29:12;96698.19;;;7.06;42.26
50977;BME280;36992;48.200;12.418;2023-04-07T02:31:38;96694.97;;;7.04;42.02
50977;BME280;36992;48.200;12.418;2023-04-07T02:34:05;96696.34;;;7.01;42.18
50977;BME280;36992;48.200;12.418;2023-04-07T02:36:32;96693.09;;;6.99;42.27
50977;BME280;36992;48.200;12.418;2023-04-07T02:38:59;96692.84;;;7.00;42.17
50977;BME280;36992;48.200;12.418;2023-04-07T02:41:26;96695.25;;;6.97;42.36
50977;BME280;36992;48.200;12.418;2023-04-07T02:43:53;96699.00;;;6.96;42.51
50977;BME280;36992;48.200;12.418;2023-04-07T02:46:19;96692.84;;;6.95;42.39
50977;BME280;36992;48.200;12.418;2023-04-07T02:48:46;96688.56;;;6.94;42.25
50977;BME280;36992;48.200;12.418;2023-04-07T02:51:12;96693.09;;;6.94;42.29
50977;BME280;36992;48.200;12.418;2023-04-07T02:53:39;96691.50;;;6.93;42.32
50977;BME280;36992;48.200;12.418;2023-04-07T02:56:07;96688.81;;;6.93;42.51
50977;BME280;36992;48.200;12.418;2023-04-07T02:58:33;96686.41;;;6.91;42.49
50977;BME280;36992;48.200;12.418;2023-04-07T03:01:00;96689.38;;;6.90;42.87
50977;BME280;36992;48.200;12.418;2023-04-07T03:03:26;96693.38;;;6.87;42.84
50977;BME280;36992;48.200;12.418;2023-04-07T03:05:53;96695.25;;;6.86;42.75
50977;BME280;36992;48.200;12.418;2023-04-07T03:08:20;96695.81;;;6.83;42.67
50977;BME280;36992;48.200;12.418;2023-04-07T03:10:46;96691.78;;;6.81;42.84
50977;BME280;36992;48.200;12.418;2023-04-07T03:13:14;96689.91;;;6.81;42.85
50977;BME280;36992;48.200;12.418;2023-04-07T03:15:43;96694.19;;;6.77;43.14
50977;BME280;36992;48.200;12.418;2023-04-07T03:18:10;96686.69;;;6.74;43.30
50977;BME280;36992;48.200;12.418;2023-04-07T03:20:36;96681.88;;;6.71;43.08
50977;BME280;36992;48.200;12.418;2023-04-07T03:23:03;96692.03;;;6.69;43.05
50977;BME280;36992;48.200;12.418;2023-04-07T03:25:29;96689.66;;;6.67;42.93
50977;BME280;36992;48.200;12.418;2023-04-07T03:27:57;96688.31;;;6.65;43.18
50977;BME280;36992;48.200;12.418;2023-04-07T03:30:25;96689.09;;;6.65;42.94
50977;BME280;36992;48.200;12.418;2023-04-07T03:32:51;96690.72;;;6.61;43.00
50977;BME280;36992;48.200;12.418;2023-04-07T03:35:18;96691.50;;;6.61;42.96
50977;BME280;36992;48.200;12.418;2023-04-07T03:37:44;96684.81;;;6.59;43.04
50977;BME280;36992;48.200;12.418;2023-04-07T03:40:11;96684.00;;;6.58;42.93
50977;BME280;36992;48.200;12.418;2023-04-07T03:42:38;96677.06;;;6.57;42.84
50977;BME280;36992;48.200;12.418;2023-04-07T03:45:05;96675.44;;;6.56;42.78
50977;BME280;36992;48.200;12.418;2023-04-07T03:47:33;96680.78;;;6.56;42.65
50977;BME280;36992;48.200;12.418;2023-04-07T03:49:59;96676.78;;;6.54;43.08
50977;BME280;36992;48.200;12.418;2023-04-07T03:52:26;96671.69;;;6.52;43.06
50977;BME280;36992;48.200;12.418;2023-04-07T03:54:52;96678.13;;;6.51;42.90
50977;BME280;36992;48.200;12.418;2023-04-07T03:57:20;96681.84;;;6.50;43.23
50977;BME280;36992;48.200;12.418;2023-04-07T03:59:47;96681.84;;;6.50;43.16
50977;BME280;36992;48.200;12.418;2023-04-07T04:02:15;96676.50;;;6.50;43.21
50977;BME280;36992;48.200;12.418;2023-04-07T04:04:43;96678.91;;;6.52;42.71
50977;BME280;36992;48.200;12.418;2023-04-07T04:07:09;96675.44;;;6.51;42.99
50977;BME280;36992;48.200;12.418;2023-04-07T04:09:36;96661.50;;;6.49;43.04
50977;BME280;36992;48.200;12.418;2023-04-07T04:12:02;96663.41;;;6.48;43.00
50977;BME280;36992;48.200;12.418;2023-04-07T04:14:29;96665.25;;;6.48;43.28
50977;BME280;36992;48.200;12.418;2023-04-07T04:16:56;96667.94;;;6.48;43.33
50977;BME280;36992;48.200;12.418;2023-04-07T04:19:22;96671.16;;;6.50;43.37
50977;BME280;36992;48.200;12.418;2023-04-07T04:21:50;96671.16;;;6.50;43.10
50977;BME280;36992;48.200;12.418;2023-04-07T04:24:17;96670.63;;;6.48;43.53
50977;BME280;36992;48.200;12.418;2023-04-07T04:26:43;96666.88;;;6.49;43.62
50977;BME280;36992;48.200;12.418;2023-04-07T04:29:10;96664.19;;;6.49;43.60
50977;BME280;36992;48.200;12.418;2023-04-07T04:31:36;96669.53;;;6.49;43.72
50977;BME280;36992;48.200;12.418;2023-04-07T04:34:03;96666.34;;;6.47;43.36
50977;BME280;36992;48.200;12.418;2023-04-07T04:36:29;96663.66;;;6.47;42.98
50977;BME280;36992;48.200;12.418;2023-04-07T04:38:57;96670.63;;;6.48;43.09
50977;BME280;36992;48.200;12.418;2023-04-07T04:41:23;96663.91;;;6.45;43.35
50977;BME280;36992;48.200;12.418;2023-04-07T04:43:50;96663.91;;;6.45;43.62
50977;BME280;36992;48.200;12.418;2023-04-07T04:46:16;96666.59;;;6.45;43.51
50977;BME280;36992;48.200;12.418;2023-04-07T04:48:43;96665.81;;;6.45;43.45
50977;BME280;36992;48.200;12.418;2023-04-07T04:51:09;96663.13;;;6.45;43.26
50977;BME280;36992;48.200;12.418;2023-04-07T04:53:36;96658.56;;;6.45;43.34
50977;BME280;36992;48.200;12.418;2023-04-07T04:56:04;96667.16;;;6.47;43.08
50977;BME280;36992;48.200;12.418;2023-04-07T04:58:31;96666.59;;;6.45;43.06
50977;BME280;36992;48.200;12.418;2023-04-07T05:00:58;96659.91;;;6.43;43.35
50977;BME280;36992;48.200;12.418;2023-04-07T05:03:25;96664.19;;;6.44;43.22
50977;BME280;36992;48.200;12.418;2023-04-07T05:05:52;96659.13;;;6.42;43.33
50977;BME280;36992;48.200;12.418;2023-04-07T05:08:18;96664.47;;;6.42;43.65
50977;BME280;36992;48.200;12.418;2023-04-07T05:10:45;96665.00;;;6.44;43.57
50977;BME280;36992;48.200;12.418;2023-04-07T05:13:13;96666.34;;;6.47;43.45
50977;BME280;36992;48.200;12.418;2023-04-07T05:15:40;96665.53;;;6.46;43.43
50977;BME280;36992;48.200;12.418;2023-04-07T05:18:07;96661.81;;;6.47;43.33
50977;BME280;36992;48.200;12.418;2023-04-07T05:20:33;96659.66;;;6.50;43.43
50977;BME280;36992;48.200;12.418;2023-04-07T05:23:00;96648.13;;;6.49;43.23
50977;BME280;36992;48.200;12.418;2023-04-07T05:25:27;96649.72;;;6.50;43.38
50977;BME280;36992;48.200;12.418;2023-04-07T05:27:53;96649.22;;;6.53;43.41
50977;BME280;36992;48.200;12.418;2023-04-07T05:30:21;96647.88;;;6.56;43.26
50977;BME280;36992;48.200;12.418;2023-04-07T05:32:48;96652.97;;;6.57;43.47
50977;BME280;36992;48.200;12.418;2023-04-07T05:35:15;96652.69;;;6.59;43.34
50977;BME280;36992;48.200;12.418;2023-04-07T05:37:41;96655.09;;;6.60;43.18
50977;BME280;36992;48.200;12.418;2023-04-07T05:40:08;96651.34;;;6.61;43.42
50977;BME280;36992;48.200;12.418;2023-04-07T05:42:35;96646.81;;;6.62;43.26
50977;BME280;36992;48.200;12.418;2023-04-07T05:45:02;96642.25;;;6.63;43.15
50977;BME280;36992;48.200;12.418;2023-04-07T05:47:30;96651.59;;;6.65;43.05
50977;BME280;36992;48.200;12.418;2023-04-07T05:49:56;96650.81;;;6.65;43.44
50977;BME280;36992;48.200;12.418;2023-04-07T05:52:23;96657.53;;;6.67;43.24
50977;BME280;36992;48.200;12.418;2023-04-07T05:54:49;96650.28;;;6.68;43.01
50977;BME280;36992;48.200;12.418;2023-04-07T05:57:16;96652.69;;;6.69;43.05
50977;BME280;36992;48.200;12.418;2023-04-07T05:59:42;96655.09;;;6.71;42.96
50977;BME280;36992;48.200;12.418;2023-04-07T06:02:09;96651.88;;;6.74;43.07
50977;BME280;36992;48.200;12.418;2023-04-07T06:04:37;96655.91;;;6.77;42.99
50977;BME280;36992;48.200;12.418;2023-04-07T06:07:03;96657.78;;;6.76;42.94
50977;BME280;36992;48.200;12.418;2023-04-07T06:09:30;96658.31;;;6.78;42.93
50977;BME280;36992;48.200;12.418;2023-04-07T06:11:56;96662.59;;;6.79;43.35
50977;BME280;36992;48.200;12.418;2023-04-07T06:14:23;96659.66;;;6.81;43.21
50977;BME280;36992;48.200;12.418;2023-04-07T06:16:50;96654.03;;;6.82;43.51
50977;BME280;36992;48.200;12.418;2023-04-07T06:19:16;96656.72;;;6.82;43.31
50977;BME280;36992;48.200;12.418;2023-04-07T06:21:44;96652.16;;;6.83;43.26
50977;BME280;36992;48.200;12.418;2023-04-07T06:24:10;96648.94;;;6.81;43.09
50977;BME280;36992;48.200;12.418;2023-04-07T06:26:38;96646.78;;;6.83;43.15
50977;BME280;36992;48.200;12.418;2023-04-07T06:29:05;96652.97;;;6.83;43.09
50977;BME280;36992;48.200;12.418;2023-04-07T06:31:31;96650.81;;;6.85;44.23
50977;BME280;36992;48.200;12.418;2023-04-07T06:33:58;96649.22;;;6.90;44.40
50977;BME280;36992;48.200;12.418;2023-04-07T06:36:24;96654.00;;;6.93;44.39
50977;BME280;36992;48.200;12.418;2023-04-07T06:38:53;96651.31;;;6.98;43.79
50977;BME280;36992;48.200;12.418;2023-04-07T06:41:19;96646.50;;;7.00;45.29
50977;BME280;36992;48.200;12.418;2023-04-07T06:43:48;96652.09;;;7.04;44.44
50977;BME280;36992;48.200;12.418;2023-04-07T06:46:15;96644.38;;;7.07;43.89
50977;BME280;36992;48.200;12.418;2023-04-07T06:48:42;96648.09;;;7.11;44.56
50977;BME280;36992;48.200;12.418;2023-04-07T06:51:08;96644.59;;;7.16;44.54
50977;BME280;36992;48.200;12.418;2023-04-07T06:53:35;96646.47;;;7.21;44.30
50977;BME280;36992;48.200;12.418;2023-04-07T06:56:04;96647.00;;;7.28;44.67
50977;BME280;36992;48.200;12.418;2023-04-07T06:58:31;96646.44;;;7.31;44.84
50977;BME280;36992;48.200;12.418;2023-04-07T07:00:57;96644.81;;;7.35;44.03
50977;BME280;36992;48.200;12.418;2023-04-07T07:03:24;96645.59;;;7.41;44.64
50977;BME280;36992;48.200;12.418;2023-04-07T07:05:52;96648.56;;;7.45;44.50
50977;BME280;36992;48.200;12.418;2023-04-07T07:08:19;96649.59;;;7.49;44.07
50977;BME280;36992;48.200;12.418;2023-04-07T07:10:45;96642.63;;;7.53;43.86
50977;BME280;36992;48.200;12.418;2023-04-07T07:13:13;96643.41;;;7.59;44.38
50977;BME280;36992;48.200;12.418;2023-04-07T07:15:39;96647.13;;;7.63;44.01
50977;BME280;36992;48.200;12.418;2023-04-07T07:18:06;96650.06;;;7.66;44.98
50977;BME280;36992;48.200;12.418;2023-04-07T07:20:32;96652.22;;;7.69;44.64
50977;BME280;36992;48.200;12.418;2023-04-07T07:22:59;96648.72;;;7.74;45.01
50977;BME280;36992;48.200;12.418;2023-04-07T07:25:26;96654.31;;;7.78;44.73
50977;BME280;36992;48.200;12.418;2023-04-07T07:27:53;96651.63;;;7.83;45.25
50977;BME280;36992;48.200;12.418;2023-04-07T07:30:22;96657.47;;;7.90;44.29
50977;BME280;36992;48.200;12.418;2023-04-07T07:32:49;96658.53;;;7.94;44.32
50977;BME280;36992;48.200;12.418;2023-04-07T07:35:17;96657.72;;;7.99;44.81
50977;BME280;36992;48.200;12.418;2023-04-07T07:37:44;96644.53;;;8.03;43.85
50977;BME280;36992;48.200;12.418;2023-04-07T07:40:11;96647.19;;;8.08;44.78
50977;BME280;36992;48.200;12.418;2023-04-07T07:42:37;96649.81;;;8.13;43.91
50977;BME280;36992;48.200;12.418;2023-04-07T07:45:04;96652.50;;;8.18;44.47
50977;BME280;36992;48.200;12.418;2023-04-07T07:47:32;96658.34;;;8.26;43.96
50977;BME280;36992;48.200;12.418;2023-04-07T07:50:01;96659.16;;;8.26;44.26
50977;BME280;36992;48.200;12.418;2023-04-07T07:52:28;96657.22;;;8.32;43.78
50977;BME280;36992;48.200;12.418;2023-04-07T07:54:54;96650.50;;;8.34;44.04
50977;BME280;36992;48.200;12.418;2023-04-07T07:57:21;96645.38;;;8.38;43.73
50977;BME280;36992;48.200;12.418;2023-04-07T07:59:47;96649.13;;;8.42;43.86
50977;BME280;36992;48.200;12.418;2023-04-07T08:02:14;96648.56;;;8.45;43.93
50977;BME280;36992;48.200;12.418;2023-04-07T08:04:42;96649.31;;;8.51;43.78
50977;BME280;36992;48.200;12.418;2023-04-07T08:07:08;96644.50;;;8.53;43.55
50977;BME280;36992;48.200;12.418;2023-04-07T08:09:36;96648.22;;;8.57;43.72
50977;BME280;36992;48.200;12.418;2023-04-07T08:12:02;96640.41;;;8.61;43.51
50977;BME280;36992;48.200;12.418;2023-04-07T08:14:29;96638.78;;;8.65;43.26
50977;BME280;36992;48.200;12.418;2023-04-07T08:16:55;96640.88;;;8.68;43.81
50977;BME280;36992;48.200;12.418;2023-04-07T08:19:22;96635.47;;;8.73;43.27
50977;BME280;36992;48.200;12.418;2023-04-07T08:21:50;96630.06;;;8.79;43.61
50977;BME280;36992;48.200;12.418;2023-04-07T08:24:16;96626.81;;;8.82;43.59
50977;BME280;36992;48.200;12.418;2023-04-07T08:26:43;96628.34;;;8.88;44.02
50977;BME280;36992;48.200;12.418;2023-04-07T08:29:10;96626.44;;;8.94;43.52
50977;BME280;36992;48.200;12.418;2023-04-07T08:31:36;96629.88;;;8.99;44.15
50977;BME280;36992;48.200;12.418;2023-04-07T08:34:03;96625.25;;;9.05;43.70
50977;BME280;36992;48.200;12.418;2023-04-07T08:36:29;96623.81;;;9.13;43.88
50977;BME280;36992;48.200;12.418;2023-04-07T08:38:57;96623.22;;;9.21;43.74
50977;BME280;36992;48.200;12.418;2023-04-07T08:41:29;96621.25;;;9.27;43.75
50977;BME280;36992;48.200;12.418;2023-04-07T08:44:00;96626.31;;;9.34;43.58
50977;BME280;36992;48.200;12.418;2023-04-07T08:46:27;96628.13;;;9.38;44.04
50977;BME280;36992;48.200;12.418;2023-04-07T08:48:55;96627.28;;;9.43;43.99
50977;BME280;36992;48.200;12.418;2023-04-07T08:51:26;96626.66;;;9.51;43.54
50977;BME280;36992;48.200;12.418;2023-04-07T08:53:59;96620.91;;;9.58;43.65
50977;BME280;36992;48.200;12.418;2023-04-07T08:56:26;96624.09;;;9.60;43.86
50977;BME280;36992;48.200;12.418;2023-04-07T08:58:53;96624.34;;;9.64;43.92
50977;BME280;36992;48.200;12.418;2023-04-07T09:01:21;96620.50;;;9.70;43.67
50977;BME280;36992;48.200;12.418;2023-04-07T09:03:48;96623.72;;;9.72;43.95
50977;BME280;36992;48.200;12.418;2023-04-07T09:06:15;96620.44;;;9.75;43.95
50977;BME280;36992;48.200;12.418;2023-04-07T09:08:42;96626.56;;;9.81;43.48
50977;BME280;36992;48.200;12.418;2023-04-07T09:11:10;96618.13;;;9.88;43.24
50977;BME280;36992;48.200;12.418;2023-04-07T09:13:37;96617.56;;;9.91;43.45
50977;BME280;36992;48.200;12.418;2023-04-07T09:16:04;96615.06;;;9.94;43.74
50977;BME280;36992;48.200;12.418;2023-04-07T09:18:30;96614.19;;;9.99;43.63
50977;BME280;36992;48.200;12.418;2023-04-07T09:20:58;96604.97;;;10.05;43.36
50977;BME280;36992;48.200;12.418;2023-04-07T09:23:29;96608.09;;;10.12;43.02
50977;BME280;36992;48.200;12.418;2023-04-07T09:25:56;96604.31;;;10.14;43.12
50977;BME280;36992;48.200;12.418;2023-04-07T09:28:37;96598.78;;;10.24;43.02
50977;BME280;36992;48.200;12.418;2023-04-07T09:31:04;96606.56;;;10.25;43.22
50977;BME280;36992;48.200;12.418;2023-04-07T09:33:32;96596.22;;;10.33;43.14
50977;BME280;36992;48.200;12.418;2023-04-07T09:35:59;96601.81;;;10.36;42.73
50977;BME280;36992;48.200;12.418;2023-04-07T09:38:32;96597.41;;;10.46;42.78
50977;BME280;36992;48.200;12.418;2023-04-07T09:41:04;96597.31;;;10.51;42.17
50977;BME280;36992;48.200;12.418;2023-04-07T09:43:35;96599.91;;;10.56;42.16
50977;BME280;36992;48.200;12.418;2023-04-07T09:46:12;96593.34;;;10.62;42.33
50977;BME280;36992;48.200;12.418;2023-04-07T09:48:40;96584.97;;;10.64;42.41
50977;BME280;36992;48.200;12.418;2023-04-07T09:51:09;96588.38;;;10.70;42.91
50977;BME280;36992;48.200;12.418;2023-04-07T09:53:43;96584.50;;;10.76;42.50
50977;BME280;36992;48.200;12.418;2023-04-07T09:56:12;96585.03;;;10.78;42.48
50977;BME280;36992;48.200;12.418;2023-04-07T09:58:40;96584.94;;;10.83;42.00
50977;BME280;36992;48.200;12.418;2023-04-07T10:01:07;96586.72;;;10.88;42.29
50977;BME280;36992;48.200;12.418;2023-04-07T10:03:34;96583.13;;;10.92;42.28
50977;BME280;36992;48.200;12.418;2023-04-07T10:06:01;96572.25;;;10.98;42.06
50977;BME280;36992;48.200;12.418;2023-04-07T10:08:30;96573.47;;;11.05;42.21
50977;BME280;36992;48.200;12.418;2023-04-07T10:10:57;96571.28;;;11.07;42.94
50977;BME280;36992;48.200;12.418;2023-04-07T10:13:25;96572.47;;;11.15;41.74
50977;BME280;36992;48.200;12.418;2023-04-07T10:15:54;96572.88;;;11.23;41.93
50977;BME280;36992;48.200;12.418;2023-04-07T10:18:21;96567.38;;;11.28;41.85
50977;BME280;36992;48.200;12.418;2023-04-07T10:20:48;96567.78;;;11.35;41.45
50977;BME280;36992;48.200;12.418;2023-04-07T10:23:20;96568.06;;;11.47;41.79
50977;BME280;36992;48.200;12.418;2023-04-07T10:25:48;96568.47;;;11.55;42.00
50977;BME280;36992;48.200;12.418;2023-04-07T10:28:17;96558.88;;;11.63;40.32
50977;BME280;36992;48.200;12.418;2023-04-07T10:30:47;96556.84;;;11.68;40.25
50977;BME280;36992;48.200;12.418;2023-04-07T10:33:15;96555.81;;;11.78;40.36
50977;BME280;36992;48.200;12.418;2023-04-07T10:36:04;96563.41;;;11.90;40.51
50977;BME280;36992;48.200;12.418;2023-04-07T10:38:31;96555.78;;;11.92;40.31
50977;BME280;36992;48.200;12.418;2023-04-07T10:40:58;96557.56;;;11.97;39.63
50977;BME280;36992;48.200;12.418;2023-04-07T10:43:38;96563.59;;;12.08;40.05
50977;BME280;36992;48.200;12.418;2023-04-07T10:46:06;96557.06;;;12.09;39.14
50977;BME280;36992;48.200;12.418;2023-04-07T10:48:33;96554.75;;;12.16;39.63
50977;BME280;36992;48.200;12.418;2023-04-07T10:51:16;96552.13;;;12.25;39.32
50977;BME280;36992;48.200;12.418;2023-04-07T10:54:17;96548.38;;;12.35;39.44
50977;BME280;36992;48.200;12.418;2023-04-07T10:57:04;96545.53;;;12.40;38.75
50977;BME280;36992;48.200;12.418;2023-04-07T10:59:32;96539.03;;;12.41;37.92
50977;BME280;36992;48.200;12.418;2023-04-07T11:02:29;96541.50;;;12.51;38.54
50977;BME280;36992;48.200;12.418;2023-04-07T11:04:58;96536.56;;;12.53;37.74
50977;BME280;36992;48.200;12.418;2023-04-07T11:07:49;96544.72;;;12.62;37.88
50977;BME280;36992;48.200;12.418;2023-04-07T11:10:16;96537.41;;;12.63;37.55
50977;BME280;36992;48.200;12.418;2023-04-07T11:12:44;96537.09;;;12.64;37.28
50977;BME280;36992;48.200;12.418;2023-04-07T11:15:23;96539.66;;;12.70;38.08
50977;BME280;36992;48.200;12.418;2023-04-07T11:18:15;96539.41;;;12.80;38.68
50977;BME280;36992;48.200;12.418;2023-04-07T11:20:45;96532.59;;;12.82;38.31
50977;BME280;36992;48.200;12.418;2023-04-07T11:23:13;96529.56;;;12.84;38.12
50977;BME280;36992;48.200;12.418;2023-04-07T11:25:42;96521.47;;;12.93;37.64
50977;BME280;36992;48.200;12.418;2023-04-07T11:28:10;96525.94;;;12.98;37.77
50977;BME280;36992;48.200;12.418;2023-04-07T11:30:38;96530.09;;;13.04;37.14
50977;BME280;36992;48.200;12.418;2023-04-07T11:33:13;96530.66;;;13.15;37.47
50977;BME280;36992;48.200;12.418;2023-04-07T11:35:51;96527.00;;;13.19;37.10
50977;BME280;36992;48.200;12.418;2023-04-07T11:38:17;96527.00;;;13.19;36.71
50977;BME280;36992;48.200;12.418;2023-04-07T11:40:45;96523.47;;;13.19;37.01
50977;BME280;36992;48.200;12.418;2023-04-07T11:43:16;96525.25;;;13.24;37.03
50977;BME280;36992;48.200;12.418;2023-04-07T11:45:43;96522.88;;;13.22;37.19
50977;BME280;36992;48.200;12.418;2023-04-07T11:48:26;96520.97;;;13.31;37.79
50977;BME280;36992;48.200;12.418;2023-04-07T11:50:54;96513.97;;;13.30;38.15
50977;BME280;36992;48.200;12.418;2023-04-07T11:53:27;96515.09;;;13.38;37.78
50977;BME280;36992;48.200;12.418;2023-04-07T11:56:01;96520.38;;;13.43;37.22
50977;BME280;36992;48.200;12.418;2023-04-07T11:58:28;96517.88;;;13.47;37.01
50977;BME280;36992;48.200;12.418;2023-04-07T12:00:56;96513.91;;;13.53;37.06
50977;BME280;36992;48.200;12.418;2023-04-07T12:03:23;96517.53;;;13.57;36.88
50977;BME280;36992;48.200;12.418;2023-04-07T12:05:49;96510.88;;;13.63;35.94
50977;BME280;36992;48.200;12.418;2023-04-07T12:08:17;96511.84;;;13.68;36.13
50977;BME280;36992;48.200;12.418;2023-04-07T12:10:44;96499.09;;;13.68;36.24
50977;BME280;36992;48.200;12.418;2023-04-07T12:13:12;96505.81;;;13.71;36.19
50977;BME280;36992;48.200;12.418;2023-04-07T12:15:38;96496.56;;;13.72;36.49
50977;BME280;36992;48.200;12.418;2023-04-07T12:18:05;96503.25;;;13.74;36.02
50977;BME280;36992;48.200;12.418;2023-04-07T12:20:32;96506.75;;;13.75;36.42
50977;BME280;36992;48.200;12.418;2023-04-07T12:22:58;96501.81;;;13.77;35.81
50977;BME280;36992;48.200;12.418;2023-04-07T12:25:27;96494.63;;;13.81;36.29
50977;BME280;36992;48.200;12.418;2023-04-07T12:27:53;96495.44;;;13.82;36.38
50977;BME280;36992;48.200;12.418;2023-04-07T12:30:20;96503.72;;;13.85;36.34
50977;BME280;36992;48.200;12.418;2023-04-07T12:32:46;96492.25;;;13.88;35.91
50977;BME280;36992;48.200;12.418;2023-04-07T12:35:13;96495.13;;;13.92;36.04
50977;BME280;36992;48.200;12.418;2023-04-07T12:37:39;96499.59;;;13.97;36.11
50977;BME280;36992;48.200;12.418;2023-04-07T12:40:07;96495.09;;;14.01;35.78
50977;BME280;36992;48.200;12.418;2023-04-07T12:42:35;96496.53;;;14.07;35.82
50977;BME280;36992;48.200;12.418;2023-04-07T12:45:01;96498.94;;;14.09;35.84
50977;BME280;36992;48.200;12.418;2023-04-07T12:47:28;96498.31;;;14.12;35.47
50977;BME280;36992;48.200;12.418;2023-04-07T12:49:55;96497.97;;;14.13;35.68
50977;BME280;36992;48.200;12.418;2023-04-07T12:52:22;96500.34;;;14.15;35.33
50977;BME280;36992;48.200;12.418;2023-04-07T12:54:48;96500.84;;;14.17;35.57
50977;BME280;36992;48.200;12.418;2023-04-07T12:57:15;96498.59;;;14.19;35.82
50977;BME280;36992;48.200;12.418;2023-04-07T12:59:43;96491.75;;;14.22;35.57
50977;BME280;36992;48.200;12.418;2023-04-07T13:02:10;96501.47;;;14.23;35.66